createdAt,value
2022-11-11T00:01:41.871Z,97135.09
2022-11-11T00:04:10.624Z,97150.25
2022-11-11T00:06:38.100Z,97131.47
2022-11-11T00:09:05.575Z,97146.69
2022-11-11T00:11:32.971Z,97163.41
2022-11-11T00:14:00.370Z,97156.44
2022-11-11T00:16:47.779Z,97164.59
2022-11-11T00:19:34.364Z,97166.59
2022-11-11T00:22:19.118Z,97166.41
2022-11-11T00:25:04.461Z,97162.63
2022-11-11T00:27:31.926Z,97169.00
2022-11-11T00:29:59.365Z,97166.38
2022-11-11T00:32:31.116Z,97166.97
2022-11-11T00:35:18.560Z,97156.78
2022-11-11T00:37:48.589Z,97158.59
2022-11-11T00:40:16.571Z,97153.19
2022-11-11T00:42:44.489Z,97168.13
2022-11-11T00:45:13.121Z,97169.94
2022-11-11T00:48:12.971Z,97156.78
2022-11-11T00:50:59.804Z,97149.44
2022-11-11T00:53:29.288Z,97139.84
2022-11-11T00:55:58.019Z,97128.22
2022-11-11T00:58:28.564Z,97162.50
2022-11-11T01:00:56.325Z,97158.13
2022-11-11T01:03:24.514Z,97160.88
2022-11-11T01:05:53.288Z,97167.06
2022-11-11T01:08:20.963Z,97169.66
2022-11-11T01:10:49.625Z,97168.25
2022-11-11T01:13:19.116Z,97168.44
2022-11-11T01:15:49.147Z,97148.06
2022-11-11T01:18:18.919Z,97162.25
2022-11-11T01:20:46.924Z,97181.75
2022-11-11T01:23:16.161Z,97180.16
2022-11-11T01:25:43.772Z,97151.00
2022-11-11T01:28:11.458Z,97180.69
2022-11-11T01:30:38.884Z,97174.69
2022-11-11T01:33:06.328Z,97171.84
2022-11-11T01:35:38.584Z,97181.06
2022-11-11T01:38:06.467Z,97178.47
2022-11-11T01:40:42.930Z,97158.34
2022-11-11T01:43:19.504Z,97178.31
2022-11-11T01:45:54.488Z,97155.47
2022-11-11T01:48:46.059Z,97176.72
2022-11-11T01:51:19.924Z,97175.28
2022-11-11T01:53:52.792Z,97164.56
2022-11-11T01:56:22.081Z,97165.53
2022-11-11T01:58:51.483Z,97154.78
2022-11-11T02:01:19.379Z,97166.53
2022-11-11T02:04:09.148Z,97177.69
2022-11-11T02:06:37.109Z,97185.47
2022-11-11T02:09:06.428Z,97176.34
2022-11-11T02:11:55.104Z,97175.66
2022-11-11T02:14:38.047Z,97184.63
2022-11-11T02:17:06.650Z,97188.38
2022-11-11T02:19:42.699Z,97178.78
2022-11-11T02:22:13.416Z,97185.75
2022-11-11T02:24:43.649Z,97187.13
2022-11-11T02:27:15.663Z,97181.28
2022-11-11T02:29:46.156Z,97193.59
2022-11-11T02:32:13.642Z,97198.91
2022-11-11T02:34:41.274Z,97198.28
2022-11-11T02:37:10.041Z,97196.44
2022-11-11T02:40:02.514Z,97187.91
2022-11-11T02:42:32.408Z,97187.09
2022-11-11T02:45:00.317Z,97199.13
2022-11-11T02:47:28.030Z,97201.16
2022-11-11T02:49:55.629Z,97200.16
2022-11-11T02:52:23.122Z,97207.13
2022-11-11T02:54:51.997Z,97204.59
2022-11-11T02:57:19.470Z,97207.19
2022-11-11T02:59:46.877Z,97201.47
2022-11-11T03:02:14.337Z,97193.00
2022-11-11T03:04:41.995Z,97205.44
2022-11-11T03:07:09.687Z,97199.59
2022-11-11T03:09:37.232Z,97209.19
2022-11-11T03:12:06.675Z,97204.56
2022-11-11T03:14:34.207Z,97199.22
2022-11-11T03:17:19.554Z,97196.78
2022-11-11T03:19:47.238Z,97203.16
2022-11-11T03:25:15.073Z,97207.00
2022-11-11T03:27:43.831Z,97207.00
2022-11-11T03:30:12.073Z,97197.66
2022-11-11T03:32:39.475Z,97200.97
2022-11-11T03:35:07.165Z,97196.19
2022-11-11T03:37:51.859Z,97203.41
2022-11-11T03:40:19.276Z,97195.56
2022-11-11T03:42:48.023Z,97192.56
2022-11-11T03:45:15.596Z,97196.94
2022-11-11T03:47:42.972Z,97198.13
2022-11-11T03:50:10.505Z,97190.78
2022-11-11T03:52:42.139Z,97184.97
2022-11-11T03:55:10.289Z,97198.75
2022-11-11T03:57:41.529Z,97194.97
2022-11-11T04:00:14.698Z,97194.97
2022-11-11T04:02:59.928Z,97185.94
2022-11-11T04:05:44.900Z,97193.88
2022-11-11T04:08:31.253Z,97208.66
2022-11-11T04:10:59.885Z,97200.63
2022-11-11T04:13:45.943Z,97210.44
2022-11-11T04:16:15.251Z,97208.28
2022-11-11T04:19:00.165Z,97211.22
2022-11-11T04:21:45.926Z,97214.03
2022-11-11T04:24:32.197Z,97219.56
2022-11-11T04:27:01.423Z,97214.38
2022-11-11T04:29:28.764Z,97202.38
2022-11-11T04:32:16.820Z,97204.03
2022-11-11T04:34:45.703Z,97202.69
2022-11-11T04:37:13.797Z,97205.44
2022-11-11T04:39:58.763Z,97204.91
2022-11-11T04:42:26.667Z,97192.50
2022-11-11T04:45:12.262Z,97205.94
2022-11-11T04:47:53.622Z,97197.16
2022-11-11T04:50:21.129Z,97194.59
2022-11-11T04:52:48.597Z,97188.38
2022-11-11T04:55:34.480Z,97197.53
2022-11-11T04:58:01.920Z,97204.31
2022-11-11T05:00:31.788Z,97199.97
2022-11-11T05:03:18.848Z,97202.72
2022-11-11T05:06:05.425Z,97196.53
2022-11-11T05:08:51.075Z,97196.91
2022-11-11T05:11:18.631Z,97199.03
2022-11-11T05:14:04.133Z,97200.00
2022-11-11T05:16:52.785Z,97197.41
2022-11-11T05:19:38.912Z,97206.53
2022-11-11T05:22:12.129Z,97203.44
2022-11-11T05:24:57.829Z,97207.81
2022-11-11T05:27:25.986Z,97212.31
2022-11-11T05:29:53.410Z,97217.06
2022-11-11T05:32:22.072Z,97210.22
2022-11-11T05:34:50.906Z,97217.28
2022-11-11T05:37:18.922Z,97209.09
2022-11-11T05:39:46.686Z,97220.00
2022-11-11T05:42:14.310Z,97218.38
2022-11-11T05:44:41.761Z,97216.94
2022-11-11T05:47:09.268Z,97221.50
2022-11-11T05:49:36.870Z,97219.28
2022-11-11T05:52:06.396Z,97221.25
2022-11-11T05:54:33.782Z,97224.66
2022-11-11T05:57:01.445Z,97222.22
2022-11-11T05:59:28.893Z,97216.44
2022-11-11T06:01:56.331Z,97219.22
2022-11-11T06:04:24.028Z,97216.38
2022-11-11T06:06:51.524Z,97217.97
2022-11-11T06:09:20.545Z,97196.34
2022-11-11T06:11:48.095Z,97217.78
2022-11-11T06:14:15.478Z,97228.56
2022-11-11T06:16:42.886Z,97231.16
2022-11-11T06:19:10.380Z,97231.16
2022-11-11T06:21:51.788Z,97235.34
2022-11-11T06:24:25.188Z,97238.28
2022-11-11T06:26:54.804Z,97243.00
2022-11-11T06:29:22.242Z,97247.38
2022-11-11T06:31:49.701Z,97248.38
2022-11-11T06:34:17.150Z,97252.56
2022-11-11T06:36:44.656Z,97241.25
2022-11-11T06:39:12.091Z,97267.59
2022-11-11T06:41:40.850Z,97257.09
2022-11-11T06:44:08.367Z,97266.72
2022-11-11T06:46:36.001Z,97270.63
2022-11-11T06:49:03.527Z,97270.28
2022-11-11T06:51:30.928Z,97270.44
2022-11-11T06:53:58.291Z,97272.50
2022-11-11T06:56:25.671Z,97267.25
2022-11-11T06:58:54.377Z,97277.94
2022-11-11T07:01:21.858Z,97269.25
2022-11-11T07:03:49.254Z,97270.44
2022-11-11T07:06:16.646Z,97269.09
2022-11-11T07:08:44.587Z,97279.50
2022-11-11T07:11:18.363Z,97284.13
2022-11-11T07:13:46.532Z,97277.63
2022-11-11T07:16:15.305Z,97284.19
2022-11-11T07:18:42.700Z,97274.84
2022-11-11T07:21:10.070Z,97283.03
2022-11-11T07:23:37.443Z,97277.06
2022-11-11T07:26:04.902Z,97291.22
2022-11-11T07:28:32.273Z,97293.44
2022-11-11T07:30:59.646Z,97291.84
2022-11-11T07:33:28.333Z,97294.25
2022-11-11T07:35:55.706Z,97293.66
2022-11-11T07:38:23.422Z,97307.00
2022-11-11T07:40:51.063Z,97311.81
2022-11-11T07:43:18.436Z,97297.28
2022-11-11T07:45:45.836Z,97306.53
2022-11-11T07:48:13.213Z,97302.22
2022-11-11T07:50:42.062Z,97302.84
2022-11-11T07:53:09.453Z,97306.81
2022-11-11T07:55:36.885Z,97306.91
2022-11-11T07:58:04.266Z,97304.75
2022-11-11T08:00:31.653Z,97311.41
2022-11-11T08:03:00.603Z,97308.31
2022-11-11T08:05:29.459Z,97300.19
2022-11-11T08:08:03.822Z,97300.88
2022-11-11T08:10:31.586Z,97303.72
2022-11-11T08:13:16.558Z,97299.78
2022-11-11T08:15:43.976Z,97298.03
2022-11-11T08:18:11.677Z,97303.25
2022-11-11T08:20:44.473Z,97310.31
2022-11-11T08:26:06.114Z,97309.97
2022-11-11T08:28:35.095Z,97313.03
2022-11-11T08:31:04.553Z,97313.50
2022-11-11T08:33:43.741Z,97312.31
2022-11-11T08:36:15.044Z,97303.59
2022-11-11T08:38:48.073Z,97306.03
2022-11-11T08:41:16.332Z,97305.66
2022-11-11T08:43:43.822Z,97300.50
2022-11-11T08:46:11.922Z,97316.75
2022-11-11T08:48:39.470Z,97312.84
2022-11-11T08:51:07.016Z,97310.25
2022-11-11T08:53:34.454Z,97317.25
2022-11-11T08:56:04.541Z,97301.50
2022-11-11T08:58:32.383Z,97326.91
2022-11-11T09:01:01.681Z,97317.13
2022-11-11T09:03:30.053Z,97318.34
2022-11-11T09:05:57.598Z,97313.59
2022-11-11T09:08:25.154Z,97301.81
2022-11-11T09:10:52.641Z,97312.22
2022-11-11T09:13:21.503Z,97314.81
2022-11-11T09:15:48.975Z,97311.47
2022-11-11T09:18:16.432Z,97318.84
2022-11-11T09:20:43.848Z,97313.44
2022-11-11T09:23:11.263Z,97325.44
2022-11-11T09:25:38.665Z,97319.63
2022-11-11T09:28:06.459Z,97324.47
2022-11-11T09:30:35.223Z,97328.63
2022-11-11T09:33:03.442Z,97327.84
2022-11-11T09:35:31.045Z,97336.66
2022-11-11T09:38:00.489Z,97332.25
2022-11-11T09:40:34.618Z,97324.22
2022-11-11T09:43:10.852Z,97330.63
2022-11-11T09:45:53.901Z,97330.63
2022-11-11T09:48:39.899Z,97329.03
2022-11-11T09:51:16.359Z,97333.41
2022-11-11T09:53:50.540Z,97345.78
2022-11-11T09:56:31.259Z,97344.75
2022-11-11T09:59:06.222Z,97338.16
2022-11-11T10:01:41.453Z,97343.72
2022-11-11T10:04:18.411Z,97329.88
2022-11-11T10:06:48.286Z,97329.25
2022-11-11T10:09:23.713Z,97333.22
2022-11-11T10:11:59.937Z,97319.03
2022-11-11T10:14:34.013Z,97340.00
2022-11-11T10:17:10.847Z,97324.72
2022-11-11T10:19:49.301Z,97331.44
2022-11-11T10:22:21.795Z,97325.56
2022-11-11T10:27:30.084Z,97335.47
2022-11-11T10:29:58.345Z,97320.00
2022-11-11T10:32:29.105Z,97322.19
2022-11-11T10:35:03.800Z,97329.88
2022-11-11T10:37:39.672Z,97327.38
2022-11-11T10:40:16.921Z,97323.41
2022-11-11T10:42:44.406Z,97336.75
2022-11-11T10:45:22.264Z,97333.25
2022-11-11T10:47:57.529Z,97329.38
2022-11-11T10:50:31.078Z,97327.00
2022-11-11T10:53:06.758Z,97328.53
2022-11-11T10:55:39.449Z,97337.66
2022-11-11T10:58:13.942Z,97326.16
2022-11-11T11:00:44.227Z,97329.50
2022-11-11T11:03:22.053Z,97307.47
2022-11-11T11:05:54.754Z,97329.16
2022-11-11T11:08:26.447Z,97325.81
2022-11-11T11:10:58.608Z,97296.16
2022-11-11T11:13:33.731Z,97318.91
2022-11-11T11:16:05.896Z,97328.25
2022-11-11T11:18:36.920Z,97321.59
2022-11-11T11:21:09.337Z,97317.28
2022-11-11T11:23:38.980Z,97326.84
2022-11-11T11:26:07.799Z,97315.16
2022-11-11T11:28:35.518Z,97316.53
2022-11-11T11:31:05.385Z,97324.28
2022-11-11T11:33:52.780Z,97336.91
2022-11-11T11:36:20.736Z,97325.78
2022-11-11T11:38:51.072Z,97328.91
2022-11-11T11:41:19.697Z,97324.50
2022-11-11T11:43:47.690Z,97314.94
2022-11-11T11:46:27.627Z,97314.63
2022-11-11T11:49:10.684Z,97306.44
2022-11-11T11:51:48.509Z,97307.94
2022-11-11T11:54:35.844Z,97307.59
2022-11-11T11:57:05.446Z,97304.88
2022-11-11T11:59:41.050Z,97302.59
2022-11-11T12:02:26.935Z,97306.34
2022-11-11T12:05:08.685Z,97314.31
2022-11-11T12:08:12.604Z,97306.13
2022-11-11T12:10:47.430Z,97309.47
2022-11-11T12:13:29.317Z,97297.28
2022-11-11T12:16:04.721Z,97311.53
2022-11-11T12:18:45.992Z,97301.81
2022-11-11T12:21:16.162Z,97304.81
2022-11-11T12:24:00.326Z,97311.19
2022-11-11T12:26:37.607Z,97303.06
2022-11-11T12:29:20.413Z,97299.53
2022-11-11T12:32:07.672Z,97292.13
2022-11-11T12:35:00.281Z,97298.72
2022-11-11T12:37:42.026Z,97294.06
2022-11-11T12:40:22.448Z,97295.19
2022-11-11T12:43:03.965Z,97287.31
2022-11-11T12:45:39.209Z,97275.47
2022-11-11T12:48:22.213Z,97274.44
2022-11-11T12:51:00.358Z,97279.97
2022-11-11T12:53:38.038Z,97282.69
2022-11-11T12:56:17.008Z,97282.88
2022-11-11T12:58:51.111Z,97284.09
2022-11-11T13:01:26.814Z,97275.50
2022-11-11T13:04:20.735Z,97280.38
2022-11-11T13:07:07.110Z,97277.22
2022-11-11T13:09:51.291Z,97272.03
2022-11-11T13:12:26.237Z,97270.06
2022-11-11T13:15:05.781Z,97273.25
2022-11-11T13:17:33.839Z,97245.59
2022-11-11T13:20:07.986Z,97273.38
2022-11-11T13:22:35.421Z,97266.31
2022-11-11T13:25:09.801Z,97268.56
2022-11-11T13:27:44.194Z,97275.41
2022-11-11T13:30:45.035Z,97265.06
2022-11-11T13:33:23.655Z,97272.00
2022-11-11T13:35:56.304Z,97276.03
2022-11-11T13:38:28.384Z,97266.56
2022-11-11T13:41:00.171Z,97259.41
2022-11-11T13:43:32.715Z,97259.09
2022-11-11T13:46:02.121Z,97265.09
2022-11-11T13:48:32.826Z,97248.25
2022-11-11T13:51:21.065Z,97255.66
2022-11-11T13:53:49.797Z,97257.59
2022-11-11T13:56:31.814Z,97257.03
2022-11-11T13:59:00.136Z,97249.06
2022-11-11T14:01:40.301Z,97248.59
2022-11-11T14:04:09.788Z,97231.41
2022-11-11T14:06:58.210Z,97258.91
2022-11-11T14:09:56.474Z,97252.53
2022-11-11T14:12:36.710Z,97259.75
2022-11-11T14:15:07.915Z,97254.50
2022-11-11T14:17:44.542Z,97262.84
2022-11-11T14:20:38.303Z,97262.03
2022-11-11T14:23:24.672Z,97265.94
2022-11-11T14:26:09.755Z,97267.63
2022-11-11T14:28:51.700Z,97270.34
2022-11-11T14:31:53.095Z,97273.72
2022-11-11T14:34:46.249Z,97269.66
2022-11-11T14:37:24.996Z,97277.81
2022-11-11T14:39:55.497Z,97273.22
2022-11-11T14:42:48.058Z,97290.91
2022-11-11T14:45:58.362Z,97275.34
2022-11-11T14:49:05.399Z,97282.50
2022-11-11T14:52:02.294Z,97280.75
2022-11-11T14:54:48.083Z,97286.19
2022-11-11T14:57:25.245Z,97275.44
2022-11-11T14:59:56.107Z,97277.53
2022-11-11T15:02:30.495Z,97279.06
2022-11-11T15:05:02.400Z,97284.88
2022-11-11T15:07:38.115Z,97273.13
2022-11-11T15:10:44.647Z,97268.25
2022-11-11T15:13:23.954Z,97271.63
2022-11-11T15:16:01.773Z,97276.13
2022-11-11T15:18:54.902Z,97276.69
2022-11-11T15:21:33.171Z,97264.38
2022-11-11T15:24:13.471Z,97274.69
2022-11-11T15:26:49.007Z,97274.88
2022-11-11T15:29:43.398Z,97276.16
2022-11-11T15:32:22.619Z,97253.06
2022-11-11T15:34:58.650Z,97256.28
2022-11-11T15:37:28.541Z,97274.09
2022-11-11T15:39:58.535Z,97273.00
2022-11-11T15:42:31.483Z,97264.97
2022-11-11T15:45:02.148Z,97277.28
2022-11-11T15:47:34.463Z,97270.38
2022-11-11T15:50:02.654Z,97273.41
2022-11-11T15:52:32.273Z,97282.13
2022-11-11T15:55:03.074Z,97277.84
2022-11-11T15:57:31.966Z,97281.06
2022-11-11T16:00:01.472Z,97277.88
2022-11-11T16:02:32.037Z,97274.44
2022-11-11T16:05:03.892Z,97268.41
2022-11-11T16:07:35.783Z,97272.03
2022-11-11T16:10:10.340Z,97278.25
2022-11-11T16:12:47.189Z,97275.53
2022-11-11T16:15:22.250Z,97272.53
2022-11-11T16:17:50.919Z,97280.81
2022-11-11T16:20:24.127Z,97280.88
2022-11-11T16:22:57.805Z,97272.72
2022-11-11T16:25:27.115Z,97269.72
2022-11-11T16:27:54.734Z,97274.56
2022-11-11T16:30:32.515Z,97275.16
2022-11-11T16:33:00.077Z,97258.44
2022-11-11T16:35:31.819Z,97275.03
2022-11-11T16:37:59.895Z,97281.88
2022-11-11T16:40:42.422Z,97281.31
2022-11-11T16:43:29.138Z,97274.78
2022-11-11T16:46:02.075Z,97270.03
2022-11-11T16:48:43.690Z,97271.25
2022-11-11T16:51:16.954Z,97292.81
2022-11-11T16:53:48.945Z,97282.66
2022-11-11T16:56:22.019Z,97284.47
2022-11-11T16:58:58.408Z,97287.63
2022-11-11T17:01:26.492Z,97285.03
2022-11-11T17:03:55.552Z,97289.84
2022-11-11T17:06:49.108Z,97282.25
2022-11-11T17:09:29.954Z,97279.25
2022-11-11T17:11:58.703Z,97283.06
2022-11-11T17:14:27.313Z,97287.06
2022-11-11T17:16:56.831Z,97283.28
2022-11-11T17:19:25.567Z,97289.47
2022-11-11T17:21:53.338Z,97287.25
2022-11-11T17:24:20.771Z,97289.28
2022-11-11T17:26:48.180Z,97287.06
2022-11-11T17:29:16.963Z,97288.28
2022-11-11T17:31:44.375Z,97292.06
2022-11-11T17:34:12.101Z,97290.88
2022-11-11T17:36:39.530Z,97285.47
2022-11-11T17:39:07.106Z,97288.28
2022-11-11T17:41:34.543Z,97288.47
2022-11-11T17:44:01.980Z,97287.44
2022-11-11T17:46:30.786Z,97281.84
2022-11-11T17:48:58.483Z,97292.44
2022-11-11T17:51:26.370Z,97280.25
2022-11-11T17:53:53.850Z,97292.03
2022-11-11T17:56:21.396Z,97298.41
2022-11-11T17:58:48.831Z,97300.97
2022-11-11T18:01:16.777Z,97288.38
2022-11-11T18:03:46.023Z,97303.94
2022-11-11T18:06:13.492Z,97295.31
2022-11-11T18:08:40.935Z,97312.69
2022-11-11T18:11:09.615Z,97278.53
2022-11-11T18:13:37.274Z,97310.47
2022-11-11T18:16:06.316Z,97308.47
2022-11-11T18:18:34.493Z,97319.31
2022-11-11T18:21:05.134Z,97319.69
2022-11-11T18:23:33.909Z,97318.91
2022-11-11T18:26:01.403Z,97319.25
2022-11-11T18:28:32.162Z,97310.47
2022-11-11T18:31:05.019Z,97332.81
2022-11-11T18:33:33.058Z,97337.41
2022-11-11T18:36:06.738Z,97334.38
2022-11-11T18:38:34.754Z,97314.97
2022-11-11T18:41:04.231Z,97331.38
2022-11-11T18:43:34.973Z,97304.75
2022-11-11T18:46:07.292Z,97324.59
2022-11-11T18:48:35.031Z,97334.97
2022-11-11T18:51:02.987Z,97330.94
2022-11-11T18:53:32.884Z,97327.31
2022-11-11T18:56:05.637Z,97308.28
2022-11-11T18:58:34.594Z,97338.25
2022-11-11T19:01:10.876Z,97337.22
2022-11-11T19:03:40.472Z,97324.81
2022-11-11T19:06:10.493Z,97316.03
2022-11-11T19:08:39.685Z,97329.59
2022-11-11T19:11:09.667Z,97331.97
2022-11-11T19:13:38.406Z,97339.81
2022-11-11T19:16:08.907Z,97336.34
2022-11-11T19:18:36.505Z,97332.75
2022-11-11T19:21:08.928Z,97340.28
2022-11-11T19:23:36.848Z,97344.63
2022-11-11T19:26:06.728Z,97351.97
2022-11-11T19:28:34.349Z,97341.38
2022-11-11T19:31:03.194Z,97344.78
2022-11-11T19:33:32.913Z,97344.50
2022-11-11T19:36:02.203Z,97331.94
2022-11-11T19:38:30.480Z,97342.44
2022-11-11T19:40:58.050Z,97331.00
2022-11-11T19:43:27.316Z,97332.19
2022-11-11T19:45:54.918Z,97341.34
2022-11-11T19:48:22.401Z,97323.13
2022-11-11T19:50:49.832Z,97325.31
2022-11-11T19:53:18.134Z,97335.88
2022-11-11T19:55:56.278Z,97338.09
2022-11-11T19:58:23.741Z,97329.91
2022-11-11T20:00:52.946Z,97344.47
2022-11-11T20:03:20.828Z,97340.81
2022-11-11T20:05:48.351Z,97325.72
2022-11-11T20:08:15.918Z,97350.66
2022-11-11T20:10:45.169Z,97350.25
2022-11-11T20:13:12.860Z,97357.06
2022-11-11T20:15:40.510Z,97359.81
2022-11-11T20:18:09.387Z,97361.56
2022-11-11T20:20:36.898Z,97353.69
2022-11-11T20:23:07.560Z,97360.66
2022-11-11T20:25:38.188Z,97355.00
2022-11-11T20:28:05.824Z,97351.28
2022-11-11T20:30:33.284Z,97363.75
2022-11-11T20:33:00.758Z,97348.97
2022-11-11T20:35:34.433Z,97354.72
2022-11-11T20:38:05.095Z,97364.66
2022-11-11T20:40:32.595Z,97365.03
2022-11-11T20:43:00.300Z,97343.84
2022-11-11T20:45:27.939Z,97373.25
2022-11-11T20:47:55.428Z,97351.84
2022-11-11T20:50:22.907Z,97361.94
2022-11-11T20:52:51.758Z,97355.19
2022-11-11T20:55:19.239Z,97353.41
2022-11-11T20:57:46.709Z,97361.16
2022-11-11T21:00:15.179Z,97349.94
2022-11-11T21:02:42.623Z,97359.91
2022-11-11T21:05:10.355Z,97354.66
2022-11-11T21:07:37.948Z,97375.16
2022-11-11T21:10:07.466Z,97360.19
2022-11-11T21:12:36.485Z,97364.94
2022-11-11T21:15:04.134Z,97359.09
2022-11-11T21:17:31.851Z,97365.25
2022-11-11T21:19:59.347Z,97361.19
2022-11-11T21:22:26.809Z,97349.72
2022-11-11T21:24:54.245Z,97361.28
2022-11-11T21:27:23.080Z,97353.56
2022-11-11T21:29:50.531Z,97371.13
2022-11-11T21:32:18.000Z,97346.59
2022-11-11T21:34:45.493Z,97356.34
2022-11-11T21:37:12.979Z,97363.66
2022-11-11T21:39:40.443Z,97372.16
2022-11-11T21:42:07.948Z,97362.28
2022-11-11T21:44:36.788Z,97374.50
2022-11-11T21:47:04.286Z,97362.28
2022-11-11T21:49:31.743Z,97364.88
2022-11-11T21:51:59.215Z,97367.47
2022-11-11T21:54:26.662Z,97364.50
2022-11-11T21:56:54.592Z,97368.94
2022-11-11T21:59:22.112Z,97365.00
2022-11-11T22:01:50.985Z,97367.44
2022-11-11T22:04:18.650Z,97364.47
2022-11-11T22:06:46.199Z,97322.69
2022-11-11T22:09:13.691Z,97358.97
2022-11-11T22:11:41.130Z,97353.06
2022-11-11T22:14:08.637Z,97348.34
2022-11-11T22:16:38.011Z,97351.34
2022-11-11T22:19:11.954Z,97342.28
2022-11-11T22:21:41.294Z,97357.94
2022-11-11T22:24:10.583Z,97355.22
2022-11-11T22:26:40.059Z,97353.63
2022-11-11T22:29:09.584Z,97357.22
2022-11-11T22:31:37.473Z,97339.34
2022-11-11T22:34:09.101Z,97352.28
2022-11-11T22:36:37.883Z,97360.41
2022-11-11T22:39:06.672Z,97359.22
2022-11-11T22:41:36.015Z,97357.88
2022-11-11T22:44:03.814Z,97354.75
2022-11-11T22:46:32.530Z,97360.28
2022-11-11T22:49:01.701Z,97358.44
2022-11-11T22:51:32.024Z,97355.41
2022-11-11T22:54:01.614Z,97364.72
2022-11-11T22:56:29.624Z,97368.84
2022-11-11T22:58:59.097Z,97376.97
2022-11-11T23:01:30.642Z,97352.66
2022-11-11T23:04:00.132Z,97358.34
2022-11-11T23:06:31.675Z,97372.97
2022-11-11T23:08:59.720Z,97369.66
2022-11-11T23:11:29.430Z,97371.66
2022-11-11T23:14:00.287Z,97376.13
2022-11-11T23:16:28.264Z,97355.84
2022-11-11T23:18:55.832Z,97365.09
2022-11-11T23:21:25.022Z,97367.81
2022-11-11T23:23:54.903Z,97363.25
2022-11-11T23:26:24.799Z,97367.97
2022-11-11T23:28:52.566Z,97370.41
2022-11-11T23:31:22.627Z,97358.44
2022-11-11T23:33:51.960Z,97365.38
2022-11-11T23:36:22.563Z,97357.81
2022-11-11T23:38:51.000Z,97356.75
2022-11-11T23:41:20.306Z,97329.97
2022-11-11T23:43:48.270Z,97351.16
2022-11-11T23:46:15.831Z,97352.41
2022-11-11T23:48:43.487Z,97328.78
2022-11-11T23:51:11.246Z,97317.16
2022-11-11T23:53:38.733Z,97345.91
2022-11-11T23:56:07.053Z,97356.38
2022-11-11T23:58:36.022Z,97326.19
